createdAt,value
2023-12-30T00:00:19.110Z,53.83
2023-12-30T00:01:16.865Z,53.52
2023-12-30T00:02:16.755Z,53.53
2023-12-30T00:03:16.776Z,53.41
2023-12-30T00:04:16.768Z,53.00
2023-12-30T00:05:16.747Z,53.01
2023-12-30T00:06:16.836Z,55.52
2023-12-30T00:07:16.751Z,53.72
2023-12-30T00:08:16.743Z,53.45
2023-12-30T00:09:16.729Z,54.29
2023-12-30T00:10:16.753Z,54.69
2023-12-30T00:11:16.733Z,53.90
2023-12-30T00:12:16.726Z,51.84
2023-12-30T00:13:16.743Z,54.21
2023-12-30T00:14:16.812Z,55.17
2023-12-30T00:15:16.738Z,54.28
2023-12-30T00:16:16.735Z,53.92
2023-12-30T00:17:16.726Z,53.32
2023-12-30T00:18:16.865Z,53.83
2023-12-30T00:19:16.843Z,52.97
2023-12-30T00:20:16.745Z,54.49
2023-12-30T00:21:16.735Z,55.23
2023-12-30T00:22:37.552Z,50.00
2023-12-30T00:23:43.187Z,50.00
2023-12-30T00:24:38.542Z,50.00
2023-12-30T00:25:37.526Z,50.00
2023-12-30T00:26:37.531Z,50.00
2023-12-30T00:27:37.524Z,50.00
2023-12-30T00:28:37.534Z,50.00
2023-12-30T00:29:37.531Z,51.01
2023-12-30T00:30:37.555Z,50.00
2023-12-30T00:31:37.527Z,52.82
2023-12-30T00:32:37.615Z,52.98
2023-12-30T00:33:37.828Z,50.89
2023-12-30T00:34:37.747Z,53.03
2023-12-30T00:35:37.752Z,51.53
2023-12-30T00:36:37.789Z,51.77
2023-12-30T00:37:37.843Z,50.79
2023-12-30T00:38:37.906Z,52.23
2023-12-30T00:39:37.935Z,53.33
2023-12-30T00:40:38.002Z,51.90
2023-12-30T00:41:38.030Z,54.34
2023-12-30T00:42:38.086Z,52.81
2023-12-30T00:43:38.152Z,51.78
2023-12-30T00:44:38.181Z,52.81
2023-12-30T00:45:38.225Z,50.61
2023-12-30T00:46:38.314Z,53.10
2023-12-30T00:47:38.347Z,52.20
2023-12-30T00:48:38.386Z,53.28
2023-12-30T00:49:38.442Z,54.17
2023-12-30T00:50:38.480Z,54.14
2023-12-30T00:51:38.529Z,54.47
2023-12-30T00:52:38.582Z,51.36
2023-12-30T00:53:38.623Z,53.88
2023-12-30T00:54:44.739Z,51.96
2023-12-30T00:55:39.671Z,52.13
2023-12-30T00:56:38.709Z,52.15
2023-12-30T00:57:38.680Z,52.00
2023-12-30T00:58:38.679Z,51.92
2023-12-30T00:59:38.701Z,53.72
2023-12-30T01:00:38.700Z,53.50
2023-12-30T01:01:38.780Z,53.73
2023-12-30T01:02:38.697Z,53.45
2023-12-30T01:03:38.722Z,52.58
2023-12-30T01:04:38.781Z,53.68
2023-12-30T01:05:38.728Z,51.40
2023-12-30T01:06:38.732Z,51.75
2023-12-30T01:07:38.778Z,50.53
2023-12-30T01:08:38.955Z,51.87
2023-12-30T01:09:38.903Z,50.81
2023-12-30T01:10:38.956Z,52.68
2023-12-30T01:11:38.964Z,52.49
2023-12-30T01:12:39.034Z,53.01
2023-12-30T01:13:39.100Z,53.05
2023-12-30T01:14:39.133Z,53.77
2023-12-30T01:15:39.193Z,55.93
2023-12-30T01:16:39.250Z,51.44
2023-12-30T01:17:39.441Z,53.03
2023-12-30T01:18:39.504Z,53.70
2023-12-30T01:19:39.412Z,51.80
2023-12-30T01:20:39.449Z,51.53
2023-12-30T01:21:39.513Z,50.87
2023-12-30T01:22:39.579Z,53.24
2023-12-30T01:23:39.614Z,52.75
2023-12-30T01:24:39.661Z,53.05
2023-12-30T01:25:39.790Z,54.28
2023-12-30T01:26:39.754Z,52.51
2023-12-30T01:27:39.814Z,52.81
2023-12-30T01:28:39.855Z,54.31
2023-12-30T01:29:39.913Z,51.53
2023-12-30T01:30:40.085Z,54.57
2023-12-30T01:31:40.082Z,54.16
2023-12-30T01:32:40.118Z,51.61
2023-12-30T01:33:40.258Z,52.83
2023-12-30T01:34:40.305Z,50.89
2023-12-30T01:35:40.298Z,52.57
2023-12-30T01:36:40.345Z,50.86
2023-12-30T01:37:40.438Z,54.04
2023-12-30T01:38:40.487Z,52.69
2023-12-30T01:39:40.531Z,53.70
2023-12-30T01:40:40.587Z,53.86
2023-12-30T01:41:40.664Z,54.08
2023-12-30T01:42:40.725Z,51.31
2023-12-30T01:43:40.816Z,52.59
2023-12-30T01:44:40.861Z,52.17
2023-12-30T01:45:40.903Z,53.97
2023-12-30T01:46:40.962Z,53.84
2023-12-30T01:47:41.154Z,53.61
2023-12-30T01:48:41.229Z,54.98
2023-12-30T01:49:41.222Z,56.08
2023-12-30T01:50:41.202Z,54.42
2023-12-30T01:51:41.261Z,52.50
2023-12-30T01:52:41.331Z,55.24
2023-12-30T01:53:41.419Z,53.89
2023-12-30T01:54:41.463Z,53.53
2023-12-30T01:55:41.531Z,52.51
2023-12-30T01:56:41.567Z,54.64
2023-12-30T01:57:41.636Z,54.06
2023-12-30T01:58:41.701Z,51.76
2023-12-30T01:59:41.769Z,52.86
2023-12-30T02:00:41.833Z,51.87
2023-12-30T02:01:42.069Z,52.40
2023-12-30T02:02:41.985Z,50.96
2023-12-30T02:03:42.137Z,52.44
2023-12-30T02:04:42.142Z,54.33
2023-12-30T02:05:42.197Z,54.99
2023-12-30T02:06:42.224Z,51.70
2023-12-30T02:07:42.355Z,52.08
2023-12-30T02:08:42.337Z,53.86
2023-12-30T02:09:42.405Z,52.48
2023-12-30T02:10:42.467Z,53.12
2023-12-30T02:11:42.558Z,51.70
2023-12-30T02:12:42.607Z,52.38
2023-12-30T02:13:42.704Z,52.05
2023-12-30T02:14:42.770Z,53.43
2023-12-30T02:15:42.797Z,52.81
2023-12-30T02:16:42.853Z,54.52
2023-12-30T02:17:43.048Z,53.99
2023-12-30T02:18:43.102Z,53.14
2023-12-30T02:19:43.086Z,52.76
2023-12-30T02:20:43.113Z,53.19
2023-12-30T02:21:43.179Z,55.45
2023-12-30T02:22:43.256Z,53.64
2023-12-30T02:23:43.319Z,54.74
2023-12-30T02:24:43.677Z,52.67
2023-12-30T02:25:43.496Z,52.89
2023-12-30T02:26:43.503Z,54.00
2023-12-30T02:27:43.562Z,55.70
2023-12-30T02:28:43.632Z,53.51
2023-12-30T02:29:43.708Z,54.48
2023-12-30T02:30:43.794Z,54.12
2023-12-30T02:31:43.891Z,54.22
2023-12-30T02:32:43.919Z,54.22
2023-12-30T02:33:43.980Z,51.90
2023-12-30T02:34:44.043Z,53.60
2023-12-30T02:35:44.078Z,54.83
2023-12-30T02:36:44.150Z,54.85
2023-12-30T02:37:44.202Z,54.17
2023-12-30T02:38:44.292Z,50.70
2023-12-30T02:39:44.686Z,54.25
2023-12-30T02:40:44.444Z,52.79
2023-12-30T02:41:44.495Z,52.97
2023-12-30T02:42:44.528Z,50.02
2023-12-30T02:43:44.594Z,52.33
2023-12-30T02:44:44.690Z,52.98
2023-12-30T02:45:44.800Z,53.98
2023-12-30T02:46:44.791Z,52.37
2023-12-30T02:47:44.893Z,54.64
2023-12-30T02:48:44.923Z,51.56
2023-12-30T02:49:45.036Z,53.09
2023-12-30T02:50:45.014Z,51.78
2023-12-30T02:51:45.078Z,53.22
2023-12-30T02:52:45.140Z,53.48
2023-12-30T02:53:45.216Z,53.83
2023-12-30T02:54:45.317Z,52.85
2023-12-30T02:55:45.379Z,53.16
2023-12-30T02:56:45.351Z,54.31
2023-12-30T02:57:49.134Z,53.51
2023-12-30T02:58:45.392Z,53.52
2023-12-30T02:59:45.394Z,53.85
2023-12-30T03:00:45.412Z,53.00
2023-12-30T03:01:45.459Z,52.79
2023-12-30T03:02:45.423Z,52.68
2023-12-30T03:03:45.419Z,50.37
2023-12-30T03:04:45.530Z,52.48
2023-12-30T03:05:45.410Z,54.20
2023-12-30T03:06:45.395Z,52.41
2023-12-30T03:07:45.391Z,52.89
2023-12-30T03:08:45.418Z,52.50
2023-12-30T03:09:45.402Z,54.28
2023-12-30T03:10:45.475Z,51.93
2023-12-30T03:11:45.500Z,54.55
2023-12-30T03:12:45.554Z,55.09
2023-12-30T03:13:45.665Z,52.86
2023-12-30T03:14:45.697Z,51.71
2023-12-30T03:15:45.756Z,51.72
2023-12-30T03:16:45.902Z,52.24
2023-12-30T03:17:45.933Z,54.06
2023-12-30T03:18:46.178Z,52.54
2023-12-30T03:19:46.086Z,53.65
2023-12-30T03:20:46.088Z,55.28
2023-12-30T03:21:46.169Z,52.49
2023-12-30T03:22:46.343Z,55.79
2023-12-30T03:23:46.297Z,52.47
2023-12-30T03:24:46.366Z,54.07
2023-12-30T03:25:46.425Z,54.18
2023-12-30T03:26:46.495Z,54.03
2023-12-30T03:27:46.572Z,52.01
2023-12-30T03:28:46.622Z,52.17
2023-12-30T03:29:46.751Z,53.14
2023-12-30T03:30:46.770Z,52.52
2023-12-30T03:31:46.943Z,54.64
2023-12-30T03:32:46.909Z,53.06
2023-12-30T03:33:46.989Z,53.07
2023-12-30T03:34:47.064Z,52.40
2023-12-30T03:35:47.075Z,53.68
2023-12-30T03:36:47.140Z,52.14
2023-12-30T03:37:47.216Z,52.51
2023-12-30T03:38:47.276Z,53.53
2023-12-30T03:39:47.363Z,52.88
2023-12-30T03:40:47.422Z,54.13
2023-12-30T03:41:47.467Z,54.39
2023-12-30T03:42:47.539Z,54.91
2023-12-30T03:43:47.599Z,53.62
2023-12-30T03:44:47.661Z,53.83
2023-12-30T03:45:47.711Z,54.65
2023-12-30T03:46:47.780Z,53.43
2023-12-30T03:47:47.883Z,52.50
2023-12-30T03:48:47.940Z,51.53
2023-12-30T03:49:48.192Z,52.90
2023-12-30T03:50:48.048Z,54.38
2023-12-30T03:51:48.170Z,53.60
2023-12-30T03:52:48.178Z,54.12
2023-12-30T03:53:48.240Z,52.94
2023-12-30T03:54:48.293Z,54.91
2023-12-30T03:55:49.194Z,51.86
2023-12-30T03:56:48.426Z,53.74
2023-12-30T03:57:48.542Z,53.29
2023-12-30T03:58:48.573Z,53.81
2023-12-30T03:59:48.639Z,53.77
2023-12-30T04:00:48.778Z,52.46
2023-12-30T04:01:48.743Z,52.79
2023-12-30T04:02:48.869Z,51.29
2023-12-30T04:03:48.952Z,51.89
2023-12-30T04:04:48.959Z,52.86
2023-12-30T04:05:49.009Z,53.25
2023-12-30T04:06:49.094Z,54.50
2023-12-30T04:07:49.107Z,52.23
2023-12-30T04:08:49.168Z,55.71
2023-12-30T04:09:49.266Z,52.96
2023-12-30T04:10:49.312Z,54.05
2023-12-30T04:11:49.390Z,54.27
2023-12-30T04:12:49.469Z,53.83
2023-12-30T04:13:49.586Z,54.46
2023-12-30T04:14:49.583Z,53.19
2023-12-30T04:15:49.676Z,55.11
2023-12-30T04:16:49.715Z,54.96
2023-12-30T04:17:49.796Z,51.24
2023-12-30T04:18:49.918Z,53.14
2023-12-30T04:19:49.976Z,54.39
2023-12-30T04:20:49.955Z,53.83
2023-12-30T04:21:50.054Z,53.21
2023-12-30T04:22:50.066Z,54.58
2023-12-30T04:23:50.138Z,52.73
2023-12-30T04:24:50.233Z,54.00
2023-12-30T04:25:50.275Z,55.18
2023-12-30T04:26:50.370Z,54.63
2023-12-30T04:27:50.508Z,54.04
2023-12-30T04:28:50.477Z,53.08
2023-12-30T04:29:50.540Z,54.65
2023-12-30T04:30:57.813Z,50.00
2023-12-30T04:32:05.091Z,50.00
2023-12-30T04:33:05.386Z,50.00
2023-12-30T04:34:05.144Z,50.00
2023-12-30T04:35:05.110Z,50.00
2023-12-30T04:36:05.073Z,50.00
2023-12-30T04:37:05.141Z,50.00
2023-12-30T04:38:05.132Z,52.93
2023-12-30T04:39:05.077Z,50.92
2023-12-30T04:40:05.108Z,50.00
2023-12-30T04:41:05.111Z,50.88
2023-12-30T04:42:05.081Z,50.34
2023-12-30T04:43:05.434Z,52.17
2023-12-30T04:44:05.093Z,51.16
2023-12-30T04:45:05.113Z,52.10
2023-12-30T04:46:05.116Z,52.33
2023-12-30T04:47:05.090Z,51.90
2023-12-30T04:48:05.138Z,52.69
2023-12-30T04:49:05.230Z,53.14
2023-12-30T04:50:05.113Z,50.46
2023-12-30T04:51:05.101Z,50.59
2023-12-30T04:52:05.128Z,52.74
2023-12-30T04:53:05.310Z,53.47
2023-12-30T04:54:05.099Z,52.49
2023-12-30T04:55:05.141Z,52.99
2023-12-30T04:56:05.186Z,52.72
2023-12-30T04:57:05.104Z,53.42
2023-12-30T04:58:05.165Z,51.16
2023-12-30T04:59:05.177Z,51.07
2023-12-30T05:00:05.238Z,52.93
2023-12-30T05:01:05.361Z,50.00
2023-12-30T05:02:05.410Z,54.13
2023-12-30T05:03:05.792Z,51.03
2023-12-30T05:04:05.514Z,52.37
2023-12-30T05:05:05.575Z,51.52
2023-12-30T05:06:05.619Z,53.96
2023-12-30T05:07:05.696Z,51.61
2023-12-30T05:08:06.962Z,54.25
2023-12-30T05:09:05.827Z,54.19
2023-12-30T05:10:06.030Z,52.70
2023-12-30T05:11:05.935Z,52.86
2023-12-30T05:12:06.021Z,51.99
2023-12-30T05:13:06.410Z,52.34
2023-12-30T05:14:06.205Z,53.55
2023-12-30T05:15:06.196Z,50.46
2023-12-30T05:16:06.308Z,53.49
2023-12-30T05:17:06.354Z,52.64
2023-12-30T05:18:06.447Z,51.90
2023-12-30T05:19:06.562Z,54.25
2023-12-30T05:20:06.526Z,53.33
2023-12-30T05:21:06.596Z,52.35
2023-12-30T05:22:06.693Z,54.21
2023-12-30T05:23:06.752Z,53.52
2023-12-30T05:24:06.830Z,51.95
2023-12-30T05:25:06.975Z,51.13
2023-12-30T05:26:06.924Z,52.50
2023-12-30T05:27:06.968Z,51.69
2023-12-30T05:28:07.130Z,52.88
2023-12-30T05:29:07.113Z,55.02
2023-12-30T05:30:07.213Z,53.16
2023-12-30T05:31:07.339Z,52.23
2023-12-30T05:32:07.336Z,53.63
2023-12-30T05:33:07.792Z,55.36
2023-12-30T05:34:07.467Z,51.37
2023-12-30T05:35:07.586Z,51.80
2023-12-30T05:36:07.565Z,53.29
2023-12-30T05:37:07.692Z,54.09
2023-12-30T05:38:07.688Z,54.34
2023-12-30T05:39:07.762Z,53.66
2023-12-30T05:40:08.030Z,54.74
2023-12-30T05:41:07.911Z,53.09
2023-12-30T05:42:07.965Z,52.93
2023-12-30T05:43:08.062Z,53.43
2023-12-30T05:44:08.089Z,51.54
2023-12-30T05:45:08.191Z,53.29
2023-12-30T05:46:08.287Z,52.27
2023-12-30T05:47:08.308Z,52.82
2023-12-30T05:48:08.434Z,52.99
2023-12-30T05:49:08.611Z,52.56
2023-12-30T05:50:08.517Z,53.19
2023-12-30T05:51:08.556Z,52.46
2023-12-30T05:52:08.633Z,53.32
2023-12-30T05:53:08.693Z,52.29
2023-12-30T05:54:08.752Z,54.21
2023-12-30T05:55:08.862Z,52.12
2023-12-30T05:56:08.896Z,54.40
2023-12-30T05:57:08.933Z,51.33
2023-12-30T05:58:09.030Z,51.81
2023-12-30T05:59:09.065Z,53.48
2023-12-30T06:00:09.116Z,52.95
2023-12-30T06:01:09.357Z,53.55
2023-12-30T06:02:09.268Z,54.46
2023-12-30T06:03:09.611Z,52.96
2023-12-30T06:04:09.470Z,54.03
2023-12-30T06:05:09.469Z,52.69
2023-12-30T06:06:09.585Z,54.06
2023-12-30T06:07:09.693Z,55.20
2023-12-30T06:08:09.663Z,53.07
2023-12-30T06:09:09.728Z,52.68
2023-12-30T06:10:09.856Z,51.15
2023-12-30T06:11:09.843Z,53.96
2023-12-30T06:12:09.913Z,55.31
2023-12-30T06:13:09.998Z,54.30
2023-12-30T06:14:10.041Z,53.33
2023-12-30T06:15:10.112Z,54.70
2023-12-30T06:16:10.292Z,52.43
2023-12-30T06:17:10.248Z,53.46
2023-12-30T06:18:10.454Z,54.13
2023-12-30T06:19:11.238Z,54.02
2023-12-30T06:20:10.477Z,50.42
2023-12-30T06:21:10.530Z,54.36
2023-12-30T06:22:10.666Z,51.80
2023-12-30T06:23:10.637Z,52.73
2023-12-30T06:24:10.792Z,51.04
2023-12-30T06:25:10.879Z,52.40
2023-12-30T06:26:10.844Z,52.19
2023-12-30T06:27:10.910Z,53.19
2023-12-30T06:28:11.077Z,54.44
2023-12-30T06:29:11.078Z,53.50
2023-12-30T06:30:11.098Z,53.50
2023-12-30T06:31:11.186Z,53.76
2023-12-30T06:32:11.260Z,53.79
2023-12-30T06:33:11.368Z,51.91
2023-12-30T06:34:11.342Z,50.70
2023-12-30T06:35:11.381Z,52.74
2023-12-30T06:36:11.408Z,51.46
2023-12-30T06:37:11.480Z,53.69
2023-12-30T06:38:11.506Z,53.10
2023-12-30T06:39:11.560Z,54.55
2023-12-30T06:40:11.690Z,53.66
2023-12-30T06:41:11.663Z,54.75
2023-12-30T06:42:11.705Z,53.74
2023-12-30T06:43:11.831Z,52.02
2023-12-30T06:44:11.845Z,52.49
2023-12-30T06:45:11.915Z,51.73
2023-12-30T06:46:12.009Z,53.01
2023-12-30T06:47:12.050Z,52.48
2023-12-30T06:48:12.186Z,50.72
2023-12-30T06:49:12.282Z,52.62
2023-12-30T06:50:12.225Z,52.37
2023-12-30T06:51:12.317Z,53.54
2023-12-30T06:52:12.366Z,52.83
2023-12-30T06:53:12.412Z,54.96
2023-12-30T06:54:12.480Z,53.89
2023-12-30T06:55:18.880Z,54.55
2023-12-30T06:56:13.592Z,53.87
2023-12-30T06:57:12.558Z,54.93
2023-12-30T06:58:12.635Z,54.24
2023-12-30T06:59:12.959Z,53.51
2023-12-30T07:00:12.552Z,53.20
2023-12-30T07:01:12.626Z,54.49
2023-12-30T07:02:12.562Z,53.12
2023-12-30T07:03:12.579Z,52.62
2023-12-30T07:04:12.604Z,52.17
2023-12-30T07:05:12.782Z,52.19
2023-12-30T07:06:12.713Z,54.16
2023-12-30T07:07:12.852Z,55.48
2023-12-30T07:08:12.928Z,54.14
2023-12-30T07:09:12.905Z,54.67
2023-12-30T07:10:13.058Z,54.83
2023-12-30T07:11:13.065Z,57.18
2023-12-30T07:12:13.104Z,54.15
2023-12-30T07:13:13.225Z,55.29
2023-12-30T07:14:13.233Z,54.51
2023-12-30T07:15:13.365Z,53.05
2023-12-30T07:16:13.397Z,55.81
2023-12-30T07:17:13.421Z,54.23
2023-12-30T07:18:13.830Z,56.73
2023-12-30T07:19:13.701Z,53.49
2023-12-30T07:20:13.610Z,54.08
2023-12-30T07:21:13.915Z,54.10
2023-12-30T07:22:13.783Z,53.92
2023-12-30T07:23:13.809Z,53.36
2023-12-30T07:24:13.858Z,57.03
2023-12-30T07:25:14.020Z,57.40
2023-12-30T07:26:13.982Z,52.10
2023-12-30T07:27:14.084Z,53.06
2023-12-30T07:28:14.157Z,55.46
2023-12-30T07:29:14.173Z,55.33
2023-12-30T07:30:14.276Z,55.17
2023-12-30T07:31:14.421Z,53.91
2023-12-30T07:32:14.357Z,54.21
2023-12-30T07:33:14.504Z,51.33
2023-12-30T07:34:14.640Z,52.05
2023-12-30T07:35:14.546Z,53.62
2023-12-30T07:36:14.640Z,55.85
2023-12-30T07:37:14.797Z,54.05
2023-12-30T07:38:14.736Z,52.10
2023-12-30T07:39:14.813Z,50.86
2023-12-30T07:40:14.900Z,54.45
2023-12-30T07:41:14.941Z,54.00
2023-12-30T07:42:15.013Z,53.72
2023-12-30T07:43:15.111Z,53.69
2023-12-30T07:44:15.134Z,51.98
2023-12-30T07:45:15.228Z,54.23
2023-12-30T07:46:15.327Z,53.97
2023-12-30T07:47:15.328Z,53.07
2023-12-30T07:48:15.393Z,51.73
2023-12-30T07:49:15.563Z,51.14
2023-12-30T07:50:15.525Z,50.75
2023-12-30T07:51:15.582Z,55.14
2023-12-30T07:52:15.723Z,54.08
2023-12-30T07:53:15.711Z,56.67
2023-12-30T07:54:15.779Z,51.47
2023-12-30T07:55:15.930Z,53.22
2023-12-30T07:56:15.904Z,52.16
2023-12-30T07:57:15.983Z,54.88
2023-12-30T07:58:16.066Z,55.61
2023-12-30T07:59:16.119Z,54.25
2023-12-30T08:00:16.165Z,52.23
2023-12-30T08:01:16.266Z,55.07
2023-12-30T08:02:16.275Z,53.58
2023-12-30T08:03:16.355Z,52.64
2023-12-30T08:04:16.512Z,53.49
2023-12-30T08:05:16.484Z,52.31
2023-12-30T08:06:16.494Z,54.97
2023-12-30T08:07:16.622Z,53.44
2023-12-30T08:08:16.615Z,52.08
2023-12-30T08:09:16.665Z,50.50
2023-12-30T08:10:16.722Z,52.64
2023-12-30T08:11:16.770Z,52.26
2023-12-30T08:12:16.910Z,52.08
2023-12-30T08:13:16.946Z,51.49
2023-12-30T08:14:16.942Z,53.58
2023-12-30T08:15:17.015Z,52.87
2023-12-30T08:16:17.087Z,53.77
2023-12-30T08:17:17.242Z,53.17
2023-12-30T08:18:17.313Z,51.53
2023-12-30T08:19:17.247Z,53.97
2023-12-30T08:20:17.303Z,52.84
2023-12-30T08:21:17.349Z,52.63
2023-12-30T08:22:17.447Z,51.26
2023-12-30T08:23:17.448Z,52.07
2023-12-30T08:24:17.543Z,53.61
2023-12-30T08:25:17.591Z,53.50
2023-12-30T08:26:17.608Z,52.58
2023-12-30T08:27:17.668Z,53.10
2023-12-30T08:28:17.720Z,53.33
2023-12-30T08:29:17.751Z,56.04
2023-12-30T08:30:17.873Z,55.98
2023-12-30T08:31:17.945Z,52.50
2023-12-30T08:32:17.940Z,54.06
2023-12-30T08:33:18.061Z,54.79
2023-12-30T08:34:18.180Z,53.89
2023-12-30T08:35:18.064Z,51.59
2023-12-30T08:36:18.173Z,54.84
2023-12-30T08:37:18.164Z,53.44
2023-12-30T08:38:18.182Z,55.59
2023-12-30T08:39:18.223Z,54.39
2023-12-30T08:40:18.287Z,52.92
2023-12-30T08:41:18.310Z,53.90
2023-12-30T08:42:18.390Z,55.46
2023-12-30T08:43:18.479Z,53.78
2023-12-30T08:44:18.541Z,53.64
2023-12-30T08:45:18.774Z,55.40
2023-12-30T08:46:18.634Z,53.06
2023-12-30T08:47:18.659Z,54.09
2023-12-30T08:48:18.711Z,55.28
2023-12-30T08:49:18.767Z,55.90
2023-12-30T08:50:18.752Z,53.06
2023-12-30T08:51:18.792Z,52.33
2023-12-30T08:52:18.830Z,54.29
2023-12-30T08:53:18.799Z,56.06
2023-12-30T08:54:18.839Z,54.08
2023-12-30T08:55:18.953Z,56.15
2023-12-30T08:56:18.914Z,54.52
2023-12-30T08:57:18.951Z,54.29
2023-12-30T08:58:19.047Z,53.53
2023-12-30T08:59:19.067Z,54.00
2023-12-30T09:00:19.061Z,54.07
2023-12-30T09:01:19.259Z,52.99
2023-12-30T09:02:19.128Z,54.94
2023-12-30T09:03:20.332Z,55.14
2023-12-30T09:04:19.357Z,54.38
2023-12-30T09:05:19.295Z,54.90
2023-12-30T09:06:19.287Z,55.64
2023-12-30T09:07:19.388Z,55.76
2023-12-30T09:08:19.324Z,56.38
2023-12-30T09:09:19.344Z,54.81
2023-12-30T09:10:19.431Z,53.42
2023-12-30T09:11:19.417Z,54.72
2023-12-30T09:12:19.446Z,54.69
2023-12-30T09:13:19.513Z,53.69
2023-12-30T09:14:19.491Z,55.93
2023-12-30T09:15:19.541Z,54.55
2023-12-30T09:16:19.655Z,56.10
2023-12-30T09:17:19.599Z,55.12
2023-12-30T09:18:19.711Z,54.33
2023-12-30T09:19:19.705Z,54.04
2023-12-30T09:20:19.755Z,53.86
2023-12-30T09:21:19.633Z,54.20
2023-12-30T09:22:19.639Z,55.38
2023-12-30T09:23:19.656Z,54.12
2023-12-30T09:24:19.664Z,54.75
2023-12-30T09:25:19.685Z,52.43
2023-12-30T09:26:19.652Z,55.35
2023-12-30T09:27:19.682Z,54.18
2023-12-30T09:28:19.772Z,54.33
2023-12-30T09:29:19.696Z,56.57
2023-12-30T09:30:19.792Z,55.73
2023-12-30T09:31:19.847Z,54.54
2023-12-30T09:32:19.828Z,54.55
2023-12-30T09:33:19.988Z,54.18
2023-12-30T09:34:29.946Z,54.38
2023-12-30T09:35:21.079Z,54.41
2023-12-30T09:36:19.978Z,54.73
2023-12-30T09:37:20.069Z,54.92
2023-12-30T09:38:20.333Z,54.67
2023-12-30T09:39:19.980Z,54.46
2023-12-30T09:40:20.046Z,55.13
2023-12-30T09:41:20.044Z,55.54
2023-12-30T09:42:20.041Z,58.14
2023-12-30T09:43:20.015Z,56.79
2023-12-30T09:44:20.001Z,56.99
2023-12-30T09:45:20.011Z,58.26
2023-12-30T09:46:20.038Z,55.99
2023-12-30T09:47:20.068Z,56.91
2023-12-30T09:48:20.115Z,57.65
2023-12-30T09:49:20.110Z,57.83
2023-12-30T09:50:20.069Z,58.61
2023-12-30T09:51:20.095Z,59.42
2023-12-30T09:52:20.162Z,61.27
2023-12-30T09:53:20.268Z,61.13
2023-12-30T09:54:20.692Z,63.41
2023-12-30T09:55:20.337Z,65.97
2023-12-30T09:56:20.351Z,68.68
2023-12-30T09:57:20.381Z,71.33
2023-12-30T09:58:20.460Z,70.91
2023-12-30T09:59:20.421Z,71.48
2023-12-30T10:00:20.455Z,74.33
2023-12-30T10:01:20.511Z,78.05
2023-12-30T10:02:20.474Z,86.47
2023-12-30T10:03:20.765Z,89.50
2023-12-30T10:04:20.589Z,90.37
2023-12-30T10:05:20.545Z,91.09
2023-12-30T10:06:20.554Z,90.08
2023-12-30T10:07:20.607Z,88.40
2023-12-30T10:08:20.579Z,87.16
2023-12-30T10:09:20.579Z,83.92
2023-12-30T10:10:20.621Z,84.70
2023-12-30T10:11:20.598Z,86.75
2023-12-30T10:12:20.655Z,85.80
2023-12-30T10:13:20.741Z,86.32
2023-12-30T10:14:20.791Z,86.35
2023-12-30T10:15:20.892Z,85.84
2023-12-30T10:16:20.946Z,86.59
2023-12-30T10:17:20.987Z,85.85
2023-12-30T10:18:21.178Z,85.44
2023-12-30T10:19:21.178Z,86.19
2023-12-30T10:20:21.190Z,84.99
2023-12-30T10:21:21.276Z,87.57
2023-12-30T10:22:21.356Z,87.07
2023-12-30T10:23:21.381Z,86.28
2023-12-30T10:24:21.451Z,86.06
2023-12-30T10:25:21.547Z,86.61
2023-12-30T10:26:21.587Z,84.77
2023-12-30T10:27:21.716Z,84.82
2023-12-30T10:28:21.716Z,85.68
2023-12-30T10:29:21.704Z,84.06
2023-12-30T10:30:21.729Z,83.06
2023-12-30T10:31:23.374Z,81.59
2023-12-30T10:32:21.851Z,81.30
2023-12-30T10:33:21.813Z,80.93
2023-12-30T10:34:21.864Z,81.20
2023-12-30T10:35:23.607Z,79.29
2023-12-30T10:36:21.791Z,79.12
2023-12-30T10:37:21.865Z,80.24
2023-12-30T10:38:21.901Z,80.50
2023-12-30T10:39:21.954Z,80.39
2023-12-30T10:40:21.977Z,79.29
2023-12-30T10:41:21.964Z,79.25
2023-12-30T10:42:22.008Z,80.52
2023-12-30T10:43:22.061Z,80.45
2023-12-30T10:44:22.130Z,78.27
2023-12-30T10:45:22.200Z,79.75
2023-12-30T10:46:22.283Z,79.93
2023-12-30T10:47:22.363Z,80.05
2023-12-30T10:48:22.405Z,80.92
2023-12-30T10:49:22.609Z,80.90
2023-12-30T10:50:22.653Z,81.47
2023-12-30T10:51:22.609Z,81.19
2023-12-30T10:52:22.722Z,81.70
2023-12-30T10:53:22.726Z,82.46
2023-12-30T10:54:22.820Z,79.28
2023-12-30T10:55:22.907Z,82.66
2023-12-30T10:56:22.947Z,78.69
2023-12-30T10:57:22.971Z,78.58
2023-12-30T10:58:23.132Z,79.47
2023-12-30T10:59:23.096Z,80.38
2023-12-30T11:00:23.212Z,78.95
2023-12-30T11:01:23.342Z,77.67
2023-12-30T11:02:23.278Z,78.10
2023-12-30T11:03:23.336Z,78.34
2023-12-30T11:04:23.474Z,77.83
2023-12-30T11:05:23.605Z,76.20
2023-12-30T11:06:23.636Z,71.45
2023-12-30T11:07:23.592Z,70.65
2023-12-30T11:08:23.612Z,77.32
2023-12-30T11:09:23.632Z,76.73
2023-12-30T11:10:23.791Z,79.10
2023-12-30T11:11:23.710Z,83.12
2023-12-30T11:12:23.722Z,83.90
2023-12-30T11:13:23.729Z,84.18
2023-12-30T11:14:23.728Z,81.71
2023-12-30T11:15:23.925Z,90.74
2023-12-30T11:16:23.871Z,89.34
2023-12-30T11:17:24.077Z,84.20
2023-12-30T11:18:23.974Z,87.45
2023-12-30T11:19:24.020Z,92.02
2023-12-30T11:20:24.022Z,90.31
2023-12-30T11:21:24.061Z,88.59
2023-12-30T11:22:24.268Z,86.50
2023-12-30T11:23:24.116Z,86.16
2023-12-30T11:24:24.143Z,88.39
2023-12-30T11:25:24.285Z,86.30
2023-12-30T11:26:24.165Z,89.77
2023-12-30T11:27:24.088Z,88.71
2023-12-30T11:28:24.173Z,87.30
2023-12-30T11:29:24.166Z,86.92
2023-12-30T11:30:24.185Z,86.91
2023-12-30T11:31:24.157Z,86.14
2023-12-30T11:32:24.297Z,88.02
2023-12-30T11:33:24.232Z,86.24
2023-12-30T11:34:24.229Z,84.52
2023-12-30T11:35:24.227Z,85.92
2023-12-30T11:36:24.216Z,84.84
2023-12-30T11:37:24.302Z,85.42
2023-12-30T11:38:24.249Z,84.95
2023-12-30T11:39:24.365Z,84.93
2023-12-30T11:40:24.352Z,84.36
2023-12-30T11:41:24.299Z,84.02
2023-12-30T11:42:33.860Z,84.83
2023-12-30T11:43:25.349Z,84.89
2023-12-30T11:44:24.322Z,85.26
2023-12-30T11:45:24.323Z,85.10
2023-12-30T11:46:24.359Z,85.70
2023-12-30T11:47:24.359Z,85.79
2023-12-30T11:48:24.491Z,85.83
2023-12-30T11:49:24.726Z,87.10
2023-12-30T11:50:24.340Z,85.30
2023-12-30T11:51:24.364Z,87.16
2023-12-30T11:52:24.385Z,87.79
2023-12-30T11:53:24.317Z,84.28
2023-12-30T11:54:24.326Z,82.30
2023-12-30T11:55:24.366Z,82.36
2023-12-30T11:56:24.323Z,81.17
2023-12-30T11:57:24.328Z,82.81
2023-12-30T11:58:24.468Z,87.64
2023-12-30T11:59:24.327Z,88.96
2023-12-30T12:00:24.325Z,87.47
2023-12-30T12:01:24.430Z,82.71
2023-12-30T12:02:24.335Z,87.93
2023-12-30T12:03:24.333Z,85.01
2023-12-30T12:04:24.418Z,89.17
2023-12-30T12:05:24.451Z,89.22
2023-12-30T12:06:24.510Z,85.86
2023-12-30T12:07:24.593Z,85.96
2023-12-30T12:08:24.619Z,87.75
2023-12-30T12:09:24.682Z,87.96
2023-12-30T12:10:24.796Z,85.72
2023-12-30T12:11:24.801Z,85.83
2023-12-30T12:12:24.912Z,86.84
2023-12-30T12:13:24.941Z,86.29
2023-12-30T12:14:25.149Z,84.64
2023-12-30T12:15:25.027Z,86.00
2023-12-30T12:16:25.089Z,84.75
2023-12-30T12:17:25.138Z,86.68
2023-12-30T12:18:25.197Z,84.60
2023-12-30T12:19:25.184Z,84.42
2023-12-30T12:20:25.191Z,84.86
2023-12-30T12:21:25.186Z,85.99
2023-12-30T12:22:25.237Z,83.56
2023-12-30T12:23:25.246Z,83.09
2023-12-30T12:24:25.225Z,84.14
2023-12-30T12:25:25.305Z,82.56
2023-12-30T12:26:25.278Z,84.70
2023-12-30T12:27:25.304Z,83.14
2023-12-30T12:28:25.427Z,83.83
2023-12-30T12:29:25.402Z,81.96
2023-12-30T12:30:25.481Z,84.66
2023-12-30T12:31:25.502Z,84.07
2023-12-30T12:32:25.613Z,84.19
2023-12-30T12:33:25.744Z,85.76
2023-12-30T12:34:25.923Z,83.22
2023-12-30T12:35:25.751Z,83.37
2023-12-30T12:36:25.801Z,85.25
2023-12-30T12:37:25.909Z,82.92
2023-12-30T12:38:25.957Z,83.97
2023-12-30T12:39:25.928Z,83.66
2023-12-30T12:40:26.069Z,85.41
2023-12-30T12:41:26.073Z,85.83
2023-12-30T12:42:30.545Z,85.07
2023-12-30T12:43:27.166Z,85.11
2023-12-30T12:44:26.117Z,85.24
2023-12-30T12:45:27.878Z,85.39
2023-12-30T12:46:26.175Z,85.36
2023-12-30T12:47:26.406Z,85.58
2023-12-30T12:48:26.241Z,86.28
2023-12-30T12:49:26.190Z,85.13
2023-12-30T12:50:26.117Z,85.46
2023-12-30T12:51:27.389Z,82.75
2023-12-30T12:52:26.186Z,82.93
2023-12-30T12:53:26.126Z,83.07